createdAt,value
2022-11-12T00:00:52.961Z,12.13
2022-11-12T00:03:20.416Z,12.03
2022-11-12T00:05:49.448Z,11.40
2022-11-12T00:08:17.465Z,13.03
2022-11-12T00:10:45.274Z,10.33
2022-11-12T00:13:13.843Z,10.10
2022-11-12T00:15:41.050Z,10.40
2022-11-12T00:18:08.070Z,9.70
2022-11-12T00:20:35.787Z,9.47
2022-11-12T00:23:02.776Z,9.97
2022-11-12T00:25:30.410Z,9.33
2022-11-12T00:28:08.819Z,9.07
2022-11-12T00:30:39.285Z,8.97
2022-11-12T00:33:06.493Z,10.87
2022-11-12T00:35:33.993Z,9.77
2022-11-12T00:38:01.677Z,10.63
2022-11-12T00:40:29.481Z,10.83
2022-11-12T00:42:56.878Z,9.03
2022-11-12T00:45:24.325Z,8.47
2022-11-12T00:47:55.087Z,8.70
2022-11-12T00:50:22.135Z,9.50
2022-11-12T00:52:51.408Z,10.30
2022-11-12T00:55:18.415Z,10.17
2022-11-12T00:57:45.304Z,14.87
2022-11-12T01:00:17.033Z,14.37
2022-11-12T01:02:49.370Z,9.43
2022-11-12T01:05:18.023Z,9.60
2022-11-12T01:07:44.878Z,11.50
2022-11-12T01:10:12.492Z,15.77
2022-11-12T01:12:39.382Z,15.23
2022-11-12T01:15:07.741Z,11.67
2022-11-12T01:17:34.761Z,8.73
2022-11-12T01:20:01.739Z,12.70
2022-11-12T01:22:28.688Z,9.77
2022-11-12T01:24:55.709Z,9.13
2022-11-12T01:27:22.652Z,6.70
2022-11-12T01:29:49.649Z,7.57
2022-11-12T01:32:16.611Z,7.63
2022-11-12T01:34:43.496Z,7.97
2022-11-12T01:37:10.377Z,7.83
2022-11-12T01:39:37.345Z,7.93
2022-11-12T01:42:04.505Z,8.23
2022-11-12T01:44:34.503Z,6.63
2022-11-12T01:47:07.402Z,6.30
2022-11-12T01:49:40.114Z,6.93
2022-11-12T01:52:17.024Z,6.67
2022-11-12T01:54:48.882Z,7.00
2022-11-12T01:57:18.966Z,6.30
2022-11-12T01:59:48.910Z,5.37
2022-11-12T02:02:16.050Z,5.87
2022-11-12T02:04:43.445Z,5.63
2022-11-12T02:07:11.706Z,5.47
2022-11-12T02:09:38.861Z,5.70
2022-11-12T02:12:06.372Z,4.93
2022-11-12T02:14:34.311Z,5.80
2022-11-12T02:17:01.362Z,5.90
2022-11-12T02:19:28.354Z,6.10
2022-11-12T02:21:55.355Z,6.20
2022-11-12T02:24:22.422Z,6.57
2022-11-12T02:26:53.686Z,6.70
2022-11-12T02:29:21.245Z,6.87
2022-11-12T02:31:48.414Z,6.63
2022-11-12T02:34:15.306Z,6.23
2022-11-12T02:36:42.364Z,6.37
2022-11-12T02:39:09.372Z,6.37
2022-11-12T02:41:36.354Z,5.97
2022-11-12T02:44:03.344Z,6.03
2022-11-12T02:46:30.153Z,6.00
2022-11-12T02:48:57.018Z,6.13
2022-11-12T02:51:23.894Z,6.07
2022-11-12T02:53:50.736Z,6.00
2022-11-12T02:56:17.618Z,5.73
2022-11-12T02:58:44.576Z,5.83
2022-11-12T03:01:11.656Z,5.90
2022-11-12T03:03:38.567Z,5.57
2022-11-12T03:06:06.010Z,6.03
2022-11-12T03:08:32.896Z,5.80
2022-11-12T03:11:05.528Z,5.57
2022-11-12T03:13:32.434Z,5.87
2022-11-12T03:16:00.899Z,5.80
2022-11-12T03:18:28.444Z,6.27
2022-11-12T03:20:55.788Z,6.17
2022-11-12T03:23:22.789Z,6.23
2022-11-12T03:25:49.816Z,6.63
2022-11-12T03:28:17.179Z,6.63
2022-11-12T03:30:44.525Z,6.07
2022-11-12T03:33:14.288Z,6.77
2022-11-12T03:35:41.308Z,6.07
2022-11-12T03:38:08.580Z,6.90
2022-11-12T03:40:35.600Z,6.57
2022-11-12T03:43:02.464Z,6.40
2022-11-12T03:45:29.463Z,6.67
2022-11-12T03:47:57.869Z,6.70
2022-11-12T03:50:27.579Z,7.00
2022-11-12T03:52:57.186Z,6.90
2022-11-12T03:55:26.357Z,6.83
2022-11-12T03:57:54.557Z,6.73
2022-11-12T04:00:23.538Z,6.67
2022-11-12T04:02:50.917Z,7.60
2022-11-12T04:05:36.905Z,6.03
2022-11-12T04:08:24.725Z,5.70
2022-11-12T04:10:52.581Z,5.43
2022-11-12T04:13:28.367Z,5.23
2022-11-12T04:16:13.655Z,5.70
2022-11-12T04:19:00.021Z,5.20
2022-11-12T04:21:52.212Z,5.30
2022-11-12T04:24:38.743Z,5.67
2022-11-12T04:27:06.594Z,5.77
2022-11-12T04:29:52.217Z,5.80
2022-11-12T04:32:19.356Z,5.50
2022-11-12T04:34:46.344Z,6.10
2022-11-12T04:37:13.302Z,6.07
2022-11-12T04:39:40.302Z,6.60
2022-11-12T04:42:28.119Z,6.80
2022-11-12T04:45:03.781Z,6.93
2022-11-12T04:47:36.904Z,6.77
2022-11-12T04:50:07.731Z,6.87
2022-11-12T04:52:34.891Z,7.37
2022-11-12T04:55:01.913Z,6.70
2022-11-12T04:57:28.820Z,6.87
2022-11-12T04:59:55.843Z,6.67
2022-11-12T05:02:23.052Z,7.57
2022-11-12T05:04:50.236Z,7.50
2022-11-12T05:07:17.747Z,6.97
2022-11-12T05:09:45.034Z,6.83
2022-11-12T05:12:12.266Z,6.60
2022-11-12T05:14:39.627Z,8.47
2022-11-12T05:17:06.961Z,6.93
2022-11-12T05:19:35.132Z,8.20
2022-11-12T05:22:05.289Z,7.80
2022-11-12T05:24:42.728Z,7.93
2022-11-12T05:27:20.711Z,6.80
2022-11-12T05:29:48.061Z,7.17
2022-11-12T05:32:16.612Z,6.90
2022-11-12T05:34:43.536Z,7.00
2022-11-12T05:37:12.905Z,7.93
2022-11-12T05:39:39.803Z,9.47
2022-11-12T05:42:14.686Z,8.20
2022-11-12T05:44:41.851Z,9.03
2022-11-12T05:47:09.028Z,8.50
2022-11-12T05:49:35.998Z,10.00
2022-11-12T05:52:02.954Z,10.73
2022-11-12T05:54:29.947Z,11.20
2022-11-12T05:56:56.822Z,9.10
2022-11-12T05:59:24.537Z,8.37
2022-11-12T06:01:51.511Z,8.33
2022-11-12T06:04:18.515Z,9.20
2022-11-12T06:06:45.645Z,9.37
2022-11-12T06:09:12.757Z,9.47
2022-11-12T06:11:39.841Z,8.67
2022-11-12T06:14:07.039Z,8.00
2022-11-12T06:16:34.024Z,8.90
2022-11-12T06:19:01.149Z,9.47
2022-11-12T06:21:28.173Z,8.93
2022-11-12T06:23:59.410Z,9.30
2022-11-12T06:26:29.641Z,8.20
2022-11-12T06:28:56.911Z,9.13
2022-11-12T06:31:24.173Z,9.23
2022-11-12T06:33:51.709Z,8.50
2022-11-12T06:36:20.185Z,8.47
2022-11-12T06:38:47.448Z,8.20
2022-11-12T06:41:15.176Z,8.13
2022-11-12T06:43:42.939Z,9.03
2022-11-12T06:46:15.617Z,8.20
2022-11-12T06:48:42.865Z,7.67
2022-11-12T06:51:18.498Z,7.50
2022-11-12T06:53:46.255Z,8.33
2022-11-12T06:56:14.127Z,7.43
2022-11-12T06:58:41.786Z,7.63
2022-11-12T07:01:14.547Z,7.83
2022-11-12T07:03:42.529Z,6.40
2022-11-12T07:06:14.870Z,9.00
2022-11-12T07:08:42.178Z,8.33
2022-11-12T07:11:09.259Z,8.40
2022-11-12T07:13:38.617Z,10.50
2022-11-12T07:16:07.759Z,9.83
2022-11-12T07:18:35.538Z,8.77
2022-11-12T07:21:05.814Z,8.37
2022-11-12T07:23:35.095Z,8.13
2022-11-12T07:26:04.696Z,9.57
2022-11-12T07:28:32.134Z,9.40
2022-11-12T07:31:04.923Z,9.60
2022-11-12T07:33:33.043Z,8.80
2022-11-12T07:36:06.165Z,8.50
2022-11-12T07:38:38.434Z,9.03
2022-11-12T07:41:10.565Z,7.67
2022-11-12T07:43:38.881Z,9.47
2022-11-12T07:46:12.172Z,8.30
2022-11-12T07:48:40.187Z,9.37
2022-11-12T07:51:12.837Z,8.97
2022-11-12T07:53:40.296Z,7.63
2022-11-12T07:56:07.606Z,8.80
2022-11-12T07:58:34.858Z,8.43
2022-11-12T08:01:24.395Z,8.13
2022-11-12T08:03:51.452Z,9.77
2022-11-12T08:06:18.440Z,9.30
2022-11-12T08:08:45.428Z,7.93
2022-11-12T08:11:12.547Z,6.70
2022-11-12T08:13:39.512Z,7.40
2022-11-12T08:16:06.680Z,7.80
2022-11-12T08:18:34.256Z,12.37
2022-11-12T08:21:02.810Z,8.97
2022-11-12T08:23:30.221Z,6.33
2022-11-12T08:26:05.759Z,6.80
2022-11-12T08:28:34.685Z,5.63
2022-11-12T08:31:07.311Z,7.27
2022-11-12T08:33:34.779Z,6.40
2022-11-12T08:36:07.127Z,9.00
2022-11-12T08:38:34.567Z,7.57
2022-11-12T08:41:06.910Z,5.97
2022-11-12T08:43:34.276Z,7.27
2022-11-12T08:46:02.209Z,6.90
2022-11-12T08:48:30.601Z,6.50
2022-11-12T08:50:57.648Z,6.07
2022-11-12T08:53:25.698Z,7.00
2022-11-12T08:55:57.090Z,6.83
2022-11-12T08:58:25.491Z,6.90
2022-11-12T09:00:53.629Z,6.60
2022-11-12T09:03:22.938Z,7.37
2022-11-12T09:05:50.730Z,7.07
2022-11-12T09:08:20.897Z,7.47
2022-11-12T09:10:48.391Z,7.40
2022-11-12T09:13:17.316Z,7.80
2022-11-12T09:15:44.774Z,8.07
2022-11-12T09:18:15.068Z,7.20
2022-11-12T09:20:42.328Z,6.77
2022-11-12T09:23:12.840Z,7.73
2022-11-12T09:25:40.843Z,7.07
2022-11-12T09:28:16.292Z,8.77
2022-11-12T09:30:46.622Z,8.07
2022-11-12T09:33:25.500Z,7.40
2022-11-12T09:35:53.566Z,6.53
2022-11-12T09:38:22.259Z,7.00
2022-11-12T09:40:52.258Z,7.97
2022-11-12T09:43:26.135Z,7.63
2022-11-12T09:46:21.537Z,7.50
2022-11-12T09:48:47.453Z,6.47
2022-11-12T09:51:34.570Z,7.40
2022-11-12T09:54:28.642Z,6.73
2022-11-12T09:56:55.643Z,6.10
2022-11-12T09:59:41.702Z,6.63
2022-11-12T10:02:26.820Z,7.03
2022-11-12T10:05:17.546Z,6.73
2022-11-12T10:08:06.884Z,6.03
2022-11-12T10:10:48.201Z,6.33
2022-11-12T10:13:30.184Z,6.57
2022-11-12T10:16:41.826Z,8.97
2022-11-12T10:19:55.596Z,7.60
2022-11-12T10:22:46.994Z,6.50
2022-11-12T10:25:17.296Z,6.20
2022-11-12T10:27:45.429Z,6.30
2022-11-12T10:30:21.486Z,6.20
2022-11-12T10:32:49.169Z,6.60
2022-11-12T10:35:20.370Z,7.10
2022-11-12T10:38:06.039Z,6.30
2022-11-12T10:40:39.464Z,6.80
2022-11-12T10:43:18.779Z,7.63
2022-11-12T10:45:47.796Z,7.50
2022-11-12T10:48:29.126Z,6.83
2022-11-12T10:50:56.878Z,7.13
2022-11-12T10:53:38.599Z,7.87
2022-11-12T10:56:27.172Z,6.80
2022-11-12T10:59:16.172Z,6.40
2022-11-12T11:01:46.059Z,6.43
2022-11-12T11:04:35.344Z,6.70
2022-11-12T11:07:20.116Z,6.83
2022-11-12T11:09:59.196Z,6.53
2022-11-12T11:12:26.145Z,6.10
2022-11-12T11:15:26.064Z,6.33
2022-11-12T11:17:53.202Z,6.27
2022-11-12T11:20:38.188Z,6.07
2022-11-12T11:23:21.977Z,5.93
2022-11-12T11:25:53.694Z,6.40
2022-11-12T11:28:51.886Z,6.70
2022-11-12T11:31:27.810Z,6.20
2022-11-12T11:33:54.839Z,6.63
2022-11-12T11:36:27.611Z,5.90
2022-11-12T11:39:16.591Z,6.40
2022-11-12T11:42:01.961Z,6.17
2022-11-12T11:44:51.490Z,6.50
2022-11-12T11:47:59.514Z,7.20
2022-11-12T11:50:35.812Z,7.20
2022-11-12T11:53:46.010Z,6.77
2022-11-12T11:56:49.714Z,7.30
2022-11-12T11:59:19.764Z,7.10
2022-11-12T12:01:46.755Z,7.70
2022-11-12T12:04:35.418Z,7.83
2022-11-12T12:07:23.581Z,7.30
2022-11-12T12:10:13.901Z,7.43
2022-11-12T12:13:12.010Z,7.30
2022-11-12T12:15:45.881Z,6.57
2022-11-12T12:18:37.247Z,6.50
2022-11-12T12:21:16.999Z,7.50
2022-11-12T12:23:50.632Z,6.80
2022-11-12T12:26:35.820Z,7.07
2022-11-12T12:29:16.637Z,6.60
2022-11-12T12:31:51.057Z,7.07
2022-11-12T12:34:29.859Z,6.73
2022-11-12T12:37:07.404Z,6.57
2022-11-12T12:39:52.754Z,6.53
2022-11-12T12:42:30.467Z,6.23
2022-11-12T12:45:21.371Z,6.10
2022-11-12T12:47:49.736Z,6.70
2022-11-12T12:50:20.567Z,7.10
2022-11-12T12:53:12.579Z,7.17
2022-11-12T12:55:52.055Z,6.50
2022-11-12T12:58:26.146Z,6.80
2022-11-12T13:00:59.504Z,6.10
2022-11-12T13:03:48.888Z,6.23
2022-11-12T13:06:24.975Z,7.00
2022-11-12T13:09:00.393Z,6.33
2022-11-12T13:11:59.217Z,6.83
2022-11-12T13:14:35.605Z,6.33
2022-11-12T13:17:08.467Z,7.67
2022-11-12T13:19:42.872Z,6.17
2022-11-12T13:22:19.168Z,6.50
2022-11-12T13:25:08.154Z,7.20
2022-11-12T13:27:44.548Z,7.27
2022-11-12T13:30:14.527Z,7.47
2022-11-12T13:32:49.808Z,7.40
2022-11-12T13:35:22.705Z,7.17
2022-11-12T13:37:56.225Z,7.00
2022-11-12T13:40:41.887Z,7.90
2022-11-12T13:43:21.196Z,6.93
2022-11-12T13:45:56.026Z,7.30
2022-11-12T13:48:31.350Z,6.87
2022-11-12T13:51:02.594Z,7.13
2022-11-12T13:53:32.232Z,6.90
2022-11-12T13:55:59.356Z,7.20
2022-11-12T13:58:32.047Z,6.80
2022-11-12T14:01:01.804Z,6.97
2022-11-12T14:03:44.350Z,6.97
2022-11-12T14:06:32.223Z,7.13
2022-11-12T14:09:28.833Z,6.83
2022-11-12T14:12:19.855Z,7.57
2022-11-12T14:15:15.322Z,7.23
2022-11-12T14:18:01.046Z,7.13
2022-11-12T14:20:39.926Z,7.13
2022-11-12T14:23:24.226Z,6.77
2022-11-12T14:25:56.668Z,7.17
2022-11-12T14:28:30.901Z,7.17
2022-11-12T14:30:59.885Z,6.43
2022-11-12T14:33:29.560Z,6.63
2022-11-12T14:36:05.518Z,7.23
2022-11-12T14:38:39.999Z,6.63
2022-11-12T14:41:37.155Z,7.60
2022-11-12T14:44:13.175Z,7.47
2022-11-12T14:46:49.784Z,7.17
2022-11-12T14:49:43.592Z,6.83
2022-11-12T14:52:19.823Z,6.90
2022-11-12T14:54:57.286Z,6.90
2022-11-12T14:57:30.108Z,7.53
2022-11-12T14:59:57.735Z,7.33
2022-11-12T15:02:39.027Z,8.17
2022-11-12T15:05:18.727Z,7.57
2022-11-12T15:07:54.616Z,7.60
2022-11-12T15:10:34.088Z,7.97
2022-11-12T15:13:04.681Z,8.17
2022-11-12T15:15:34.086Z,7.30
2022-11-12T15:18:12.624Z,7.70
2022-11-12T15:20:39.556Z,7.50
2022-11-12T15:23:15.829Z,8.37
2022-11-12T15:25:42.726Z,8.07
2022-11-12T15:28:23.624Z,8.07
2022-11-12T15:31:18.905Z,8.47
2022-11-12T15:33:45.862Z,8.40
2022-11-12T15:36:18.461Z,7.67
2022-11-12T15:38:55.621Z,8.30
2022-11-12T15:41:28.356Z,8.57
2022-11-12T15:43:55.770Z,8.10
2022-11-12T15:46:23.051Z,7.67
2022-11-12T15:48:55.589Z,7.73
2022-11-12T15:51:23.177Z,7.20
2022-11-12T15:53:50.167Z,7.17
2022-11-12T15:56:21.689Z,6.60
2022-11-12T15:58:48.803Z,7.03
2022-11-12T16:01:15.934Z,7.23
2022-11-12T16:03:42.865Z,7.37
2022-11-12T16:06:12.911Z,7.77
2022-11-12T16:08:41.030Z,7.00
2022-11-12T16:11:30.454Z,9.43
2022-11-12T16:13:57.471Z,8.43
2022-11-12T16:16:24.650Z,8.63
2022-11-12T16:18:51.822Z,9.90
2022-11-12T16:21:20.999Z,10.27
2022-11-12T16:23:48.301Z,10.03
2022-11-12T16:26:19.991Z,11.27
2022-11-12T16:28:47.096Z,10.30
2022-11-12T16:31:14.140Z,9.07
2022-11-12T16:33:41.316Z,9.10
2022-11-12T16:36:15.406Z,9.57
2022-11-12T16:38:42.610Z,9.43
2022-11-12T16:41:12.311Z,9.10
2022-11-12T16:43:40.252Z,9.17
2022-11-12T16:46:14.547Z,10.43
2022-11-12T16:48:41.673Z,10.60
2022-11-12T16:51:16.512Z,11.03
2022-11-12T16:53:44.186Z,14.13
2022-11-12T16:56:21.200Z,14.57
2022-11-12T16:58:49.275Z,12.47
2022-11-12T17:01:30.693Z,11.93
2022-11-12T17:03:58.721Z,10.03
2022-11-12T17:06:40.522Z,11.20
2022-11-12T17:09:10.266Z,10.80
2022-11-12T17:11:37.854Z,12.13
2022-11-12T17:14:06.657Z,12.27
2022-11-12T17:16:33.914Z,10.20
2022-11-12T17:19:02.241Z,10.87
2022-11-12T17:21:29.387Z,11.17
2022-11-12T17:23:58.036Z,14.50
2022-11-12T17:26:25.481Z,59.07
2022-11-12T17:28:59.228Z,64.20
2022-11-12T17:31:28.588Z,55.70
2022-11-12T17:33:58.885Z,44.03
2022-11-12T17:36:27.822Z,38.23
2022-11-12T17:38:56.224Z,13.40
2022-11-12T17:41:23.781Z,12.53
2022-11-12T17:43:59.005Z,15.87
2022-11-12T17:46:26.764Z,16.33
2022-11-12T17:48:54.977Z,15.80
2022-11-12T17:51:24.356Z,14.33
2022-11-12T17:53:52.028Z,14.20
2022-11-12T17:56:22.277Z,14.10
2022-11-12T17:58:50.241Z,14.10
2022-11-12T18:01:25.895Z,13.57
2022-11-12T18:03:55.207Z,20.77
2022-11-12T18:06:26.820Z,18.40
2022-11-12T18:08:59.573Z,26.83
2022-11-12T18:11:28.950Z,32.17
2022-11-12T18:13:56.646Z,48.47
2022-11-12T18:16:26.257Z,30.10
2022-11-12T18:18:57.975Z,24.67
2022-11-12T18:21:27.170Z,18.50
2022-11-12T18:23:54.427Z,16.10
2022-11-12T18:26:22.024Z,21.33
2022-11-12T18:28:54.434Z,22.00
2022-11-12T18:31:23.464Z,16.23
2022-11-12T18:33:51.828Z,14.77
2022-11-12T18:36:24.270Z,15.93
2022-11-12T18:38:54.658Z,15.90
2022-11-12T18:41:25.990Z,16.57
2022-11-12T18:43:54.000Z,23.97
2022-11-12T18:46:22.216Z,18.83
2022-11-12T18:48:49.477Z,18.93
2022-11-12T18:51:18.343Z,18.10
2022-11-12T18:53:46.221Z,15.27
2022-11-12T18:56:16.450Z,18.73
2022-11-12T18:58:43.814Z,15.00
2022-11-12T19:01:15.897Z,19.13
2022-11-12T19:03:44.168Z,13.90
2022-11-12T19:06:14.930Z,11.77
2022-11-12T19:08:42.494Z,13.33
2022-11-12T19:11:11.857Z,23.00
2022-11-12T19:13:39.441Z,25.80
2022-11-12T19:16:16.947Z,16.63
2022-11-12T19:18:45.009Z,15.70
2022-11-12T19:21:13.414Z,12.43
2022-11-12T19:23:42.172Z,13.90
2022-11-12T19:26:12.706Z,15.20
2022-11-12T19:28:40.241Z,22.77
2022-11-12T19:31:10.648Z,13.30
2022-11-12T19:33:37.837Z,12.87
2022-11-12T19:36:07.033Z,18.20
2022-11-12T19:38:34.098Z,20.33
2022-11-12T19:41:13.364Z,14.73
2022-11-12T19:43:43.485Z,16.87
2022-11-12T19:46:11.260Z,14.93
2022-11-12T19:48:39.135Z,13.17
2022-11-12T19:51:08.331Z,18.97
2022-11-12T19:53:37.924Z,16.17
2022-11-12T19:56:06.730Z,18.43
2022-11-12T19:58:34.367Z,12.97
2022-11-12T20:01:13.472Z,19.63
2022-11-12T20:03:40.639Z,11.77
2022-11-12T20:06:10.085Z,15.47
2022-11-12T20:08:37.229Z,12.53
2022-11-12T20:11:04.888Z,8.97
2022-11-12T20:13:32.177Z,8.30
2022-11-12T20:15:59.443Z,10.63
2022-11-12T20:18:26.928Z,17.60
2022-11-12T20:20:56.936Z,11.47
2022-11-12T20:23:25.244Z,10.60
2022-11-12T20:25:53.601Z,13.80
2022-11-12T20:28:20.560Z,11.40
2022-11-12T20:30:47.504Z,10.07
2022-11-12T20:33:14.656Z,9.13
2022-11-12T20:35:41.590Z,8.60
2022-11-12T20:38:08.794Z,7.70
2022-11-12T20:40:35.801Z,9.30
2022-11-12T20:43:02.870Z,8.13
2022-11-12T20:45:29.771Z,7.97
2022-11-12T20:47:56.686Z,13.50
2022-11-12T20:50:23.953Z,15.07
2022-11-12T20:52:51.458Z,9.13
2022-11-12T20:55:18.543Z,11.33
2022-11-12T20:57:45.507Z,12.37
2022-11-12T21:00:14.686Z,12.20
2022-11-12T21:02:42.944Z,13.47
2022-11-12T21:05:09.874Z,11.77
2022-11-12T21:07:36.802Z,13.60
2022-11-12T21:10:04.246Z,11.73
2022-11-12T21:12:31.158Z,39.80
2022-11-12T21:14:58.131Z,25.70
2022-11-12T21:17:25.069Z,11.83
2022-11-12T21:19:52.208Z,14.30
2022-11-12T21:22:19.201Z,11.40
2022-11-12T21:24:46.203Z,8.80
2022-11-12T21:27:13.833Z,9.70
2022-11-12T21:29:40.863Z,20.63
2022-11-12T21:32:08.262Z,31.10
2022-11-12T21:34:35.303Z,45.37
2022-11-12T21:37:02.264Z,17.93
2022-11-12T21:39:29.189Z,19.40
2022-11-12T21:41:56.158Z,13.10
2022-11-12T21:44:23.198Z,8.10
2022-11-12T21:46:50.240Z,6.83
2022-11-12T21:49:17.379Z,7.00
2022-11-12T21:51:44.248Z,7.87
2022-11-12T21:54:13.600Z,10.47
2022-11-12T21:56:40.547Z,6.10
2022-11-12T21:59:07.437Z,9.23
2022-11-12T22:01:35.248Z,8.20
2022-11-12T22:04:07.175Z,9.10
2022-11-12T22:06:38.131Z,7.73
2022-11-12T22:09:05.698Z,11.00
2022-11-12T22:11:32.928Z,9.63
2022-11-12T22:13:59.853Z,7.50
2022-11-12T22:16:31.527Z,8.93
2022-11-12T22:18:59.584Z,11.57
2022-11-12T22:21:29.027Z,11.23
2022-11-12T22:23:57.020Z,12.40
2022-11-12T22:26:26.707Z,11.57
2022-11-12T22:28:55.434Z,7.40
2022-11-12T22:31:31.022Z,7.27
2022-11-12T22:33:59.710Z,6.73
2022-11-12T22:36:28.941Z,6.20
2022-11-12T22:38:56.789Z,5.33
2022-11-12T22:41:24.890Z,6.80
2022-11-12T22:44:10.056Z,6.20
2022-11-12T22:46:37.033Z,6.30
2022-11-12T22:49:04.880Z,7.60
2022-11-12T22:51:34.056Z,5.90
2022-11-12T22:54:04.527Z,10.27
2022-11-12T22:56:34.899Z,6.50
2022-11-12T22:59:04.868Z,6.93
2022-11-12T23:01:34.880Z,6.53
2022-11-12T23:04:05.649Z,7.70
2022-11-12T23:06:32.863Z,6.33
2022-11-12T23:09:00.612Z,7.13
2022-11-12T23:11:27.872Z,7.90
2022-11-12T23:13:55.929Z,7.90
2022-11-12T23:16:25.429Z,7.60
2022-11-12T23:18:53.086Z,6.20
2022-11-12T23:21:22.308Z,7.43
2022-11-12T23:23:49.495Z,8.40
2022-11-12T23:26:27.580Z,7.30
2022-11-12T23:28:54.611Z,7.47
2022-11-12T23:31:24.721Z,7.30
2022-11-12T23:33:54.354Z,6.30
2022-11-12T23:36:22.971Z,5.40
2022-11-12T23:38:51.312Z,5.20
2022-11-12T23:41:22.659Z,4.40
2022-11-12T23:43:50.423Z,3.80
2022-11-12T23:46:17.422Z,3.67
2022-11-12T23:48:44.698Z,4.13
2022-11-12T23:51:16.006Z,3.77
2022-11-12T23:53:42.983Z,3.77
2022-11-12T23:56:11.827Z,3.00
2022-11-12T23:58:40.450Z,3.90
